ANS903 SAZM-SAZY
Flight info
| Callsign | ANS903 |
|---|---|
| Flight time | 1h 12m |
| Altitude | 38000 |
| Route | SIRAN1G SIRAN DCT DOTRI UW32 NEU NEU1S |
| Aircraft | B737/M-SDE2E3FGHIRWXY/LB1 |
Departure
| Time | 2026-05-08 00:52 |
|---|---|
| Airport | Ástor Piazzola International Airport (SAZM) |
Arrival
| Time | 2026-05-08 02:05 |
|---|---|
| Airport | Aviador C. Campos Airport (SAZY) |
| Time | Latitude | Longitude | Altitude | Speed | Heading |
|---|---|---|---|---|---|
| 2026-05-08 00:23 | -37.93331 | -57.58071 | 53 ft | 0 kts | 334° |
| 2026-05-08 00:30 | -37.93253 | -57.58113 | 50 ft | 0 kts | 327° |
| 2026-05-08 00:40 | -37.93259 | -57.58109 | 53 ft | 4 kts | 323° |
| 2026-05-08 00:40 | -37.93274 | -57.58089 | 53 ft | 0 kts | 289° |
| 2026-05-08 00:44 | -37.93273 | -57.58089 | 53 ft | 0 kts | 292° |
| 2026-05-08 00:44 | -37.93269 | -57.58089 | 53 ft | 1 kts | 346° |
| 2026-05-08 00:44 | -37.93267 | -57.58085 | 50 ft | 0 kts | 38° |
| 2026-05-08 00:44 | -37.93266 | -57.58077 | 49 ft | 1 kts | 78° |
| 2026-05-08 00:45 | -37.93268 | -57.58056 | 53 ft | 4 kts | 105° |
| 2026-05-08 00:45 | -37.93286 | -57.58029 | 53 ft | 4 kts | 149° |
| 2026-05-08 00:45 | -37.93301 | -57.58025 | 53 ft | 0 kts | 174° |
| 2026-05-08 00:47 | -37.93317 | -57.58023 | 53 ft | 4 kts | 175° |
| 2026-05-08 00:47 | -37.93351 | -57.58021 | 53 ft | 5 kts | 163° |
| 2026-05-08 00:48 | -37.93378 | -57.57987 | 51 ft | 6 kts | 118° |
| 2026-05-08 00:48 | -37.93401 | -57.57932 | 51 ft | 8 kts | 118° |
| 2026-05-08 00:48 | -37.93439 | -57.57844 | 53 ft | 14 kts | 120° |
| 2026-05-08 00:48 | -37.93497 | -57.57712 | 52 ft | 20 kts | 119° |
| 2026-05-08 00:49 | -37.93570 | -57.57548 | 52 ft | 21 kts | 120° |
| 2026-05-08 00:49 | -37.93643 | -57.57385 | 49 ft | 21 kts | 119° |
| 2026-05-08 00:49 | -37.93712 | -57.57229 | 53 ft | 20 kts | 120° |
| 2026-05-08 00:49 | -37.93779 | -57.57075 | 52 ft | 20 kts | 119° |
| 2026-05-08 00:50 | -37.93845 | -57.56927 | 53 ft | 19 kts | 119° |
| 2026-05-08 00:50 | -37.93909 | -57.56783 | 51 ft | 18 kts | 119° |
| 2026-05-08 00:50 | -37.93970 | -57.56644 | 53 ft | 18 kts | 119° |
| 2026-05-08 00:50 | -37.94029 | -57.56512 | 52 ft | 17 kts | 119° |
| 2026-05-08 00:51 | -37.94022 | -57.56421 | 50 ft | 10 kts | 59° |
| 2026-05-08 00:51 | -37.93986 | -57.56345 | 52 ft | 10 kts | 59° |
| 2026-05-08 00:51 | -37.93947 | -57.56302 | 52 ft | 4 kts | 4° |
| 2026-05-08 00:51 | -37.93921 | -57.56339 | 50 ft | 21 kts | 302° |
| 2026-05-08 00:52 | -37.93654 | -57.56869 | 50 ft | 119 kts | 302° |
| 2026-05-08 00:52 | -37.93126 | -57.57913 | 210 ft | 180 kts | 301° |
| 2026-05-08 00:52 | -37.92451 | -57.59288 | 1361 ft | 189 kts | 295° |
| 2026-05-08 00:52 | -37.91843 | -57.60862 | 2389 ft | 203 kts | 289° |
| 2026-05-08 00:53 | -37.91111 | -57.62543 | 3030 ft | 227 kts | 296° |
| 2026-05-08 00:53 | -37.90286 | -57.64261 | 3785 ft | 233 kts | 298° |
| 2026-05-08 00:53 | -37.89417 | -57.66030 | 4524 ft | 240 kts | 299° |
| 2026-05-08 00:53 | -37.88525 | -57.67839 | 5134 ft | 253 kts | 300° |
| 2026-05-08 00:54 | -37.87566 | -57.69780 | 5887 ft | 264 kts | 301° |
| 2026-05-08 00:54 | -37.86585 | -57.71765 | 6330 ft | 266 kts | 301° |
| 2026-05-08 00:54 | -37.85638 | -57.73788 | 6496 ft | 268 kts | 292° |
| 2026-05-08 00:54 | -37.85320 | -57.76093 | 6534 ft | 268 kts | 266° |
| 2026-05-08 00:55 | -37.85774 | -57.78348 | 6533 ft | 269 kts | 245° |
| 2026-05-08 00:55 | -37.86692 | -57.80420 | 6528 ft | 270 kts | 240° |
| 2026-05-08 00:55 | -37.87678 | -57.82463 | 6538 ft | 271 kts | 240° |
| 2026-05-08 00:55 | -37.88659 | -57.84487 | 6694 ft | 273 kts | 240° |
| 2026-05-08 00:56 | -37.89316 | -57.85853 | 7184 ft | 276 kts | 240° |
| 2026-05-08 00:56 | -37.90309 | -57.87929 | 8321 ft | 274 kts | 240° |
| 2026-05-08 00:56 | -37.91641 | -57.90737 | 9540 ft | 284 kts | 241° |
| 2026-05-08 00:56 | -37.92316 | -57.92170 | 10167 ft | 285 kts | 241° |
| 2026-05-08 00:57 | -37.93335 | -57.94336 | 11106 ft | 289 kts | 241° |
| 2026-05-08 00:57 | -37.94715 | -57.97276 | 12303 ft | 294 kts | 242° |
| 2026-05-08 00:57 | -37.95409 | -57.98769 | 12909 ft | 297 kts | 242° |
| 2026-05-08 00:57 | -37.96460 | -58.01057 | 13752 ft | 302 kts | 243° |
| 2026-05-08 00:58 | -37.97524 | -58.03383 | 14443 ft | 311 kts | 243° |
| 2026-05-08 00:58 | -37.98622 | -58.05785 | 15178 ft | 318 kts | 243° |
| 2026-05-08 00:58 | -37.99741 | -58.08233 | 15940 ft | 324 kts | 243° |
| 2026-05-08 00:58 | -38.00886 | -58.10736 | 16698 ft | 330 kts | 244° |
| 2026-05-08 00:59 | -38.02052 | -58.13286 | 17439 ft | 337 kts | 244° |
| 2026-05-08 00:59 | -38.03223 | -58.15847 | 18150 ft | 342 kts | 244° |
| 2026-05-08 00:59 | -38.04417 | -58.18471 | 18929 ft | 343 kts | 246° |
| 2026-05-08 00:59 | -38.05294 | -58.21257 | 19721 ft | 336 kts | 261° |
| 2026-05-08 01:00 | -38.05859 | -58.24108 | 20508 ft | 337 kts | 263° |
| 2026-05-08 01:00 | -38.06380 | -58.27027 | 21244 ft | 340 kts | 264° |
| 2026-05-08 01:00 | -38.06900 | -58.30038 | 21488 ft | 360 kts | 264° |
| 2026-05-08 01:00 | -38.07455 | -58.33243 | 21649 ft | 380 kts | 263° |
| 2026-05-08 01:01 | -38.08040 | -58.36555 | 21867 ft | 396 kts | 262° |
| 2026-05-08 01:01 | -38.08664 | -58.39998 | 22399 ft | 403 kts | 262° |
| 2026-05-08 01:01 | -38.09304 | -58.43474 | 23102 ft | 405 kts | 262° |
| 2026-05-08 01:01 | -38.09949 | -58.46952 | 23657 ft | 408 kts | 263° |
| 2026-05-08 01:02 | -38.10598 | -58.50445 | 24172 ft | 411 kts | 263° |
| 2026-05-08 01:02 | -38.11256 | -58.53997 | 24684 ft | 414 kts | 264° |
| 2026-05-08 01:02 | -38.11918 | -58.57583 | 25198 ft | 417 kts | 264° |
| 2026-05-08 01:02 | -38.12582 | -58.61182 | 25709 ft | 420 kts | 265° |
| 2026-05-08 01:03 | -38.13245 | -58.64789 | 26203 ft | 423 kts | 265° |
| 2026-05-08 01:03 | -38.13915 | -58.68435 | 26757 ft | 425 kts | 266° |
| 2026-05-08 01:03 | -38.14589 | -58.72114 | 27222 ft | 428 kts | 266° |
| 2026-05-08 01:03 | -38.15267 | -58.75828 | 27671 ft | 432 kts | 267° |
| 2026-05-08 01:04 | -38.15946 | -58.79557 | 28128 ft | 435 kts | 267° |
| 2026-05-08 01:04 | -38.16623 | -58.83280 | 28555 ft | 438 kts | 268° |
| 2026-05-08 01:04 | -38.17313 | -58.87077 | 28999 ft | 441 kts | 268° |
| 2026-05-08 01:04 | -38.18006 | -58.90895 | 29430 ft | 443 kts | 268° |
| 2026-05-08 01:05 | -38.18693 | -58.94690 | 29801 ft | 446 kts | 268° |
| 2026-05-08 01:05 | -38.19392 | -58.98555 | 30185 ft | 448 kts | 268° |
| 2026-05-08 01:05 | -38.20090 | -59.02407 | 30632 ft | 447 kts | 267° |
| 2026-05-08 01:05 | -38.20788 | -59.06265 | 31105 ft | 446 kts | 266° |
| 2026-05-08 01:06 | -38.21481 | -59.10110 | 31524 ft | 446 kts | 265° |
| 2026-05-08 01:06 | -38.22173 | -59.13966 | 31911 ft | 447 kts | 265° |
| 2026-05-08 01:06 | -38.22854 | -59.17773 | 32305 ft | 447 kts | 264° |
| 2026-05-08 01:06 | -38.23543 | -59.21633 | 32745 ft | 446 kts | 264° |
| 2026-05-08 01:07 | -38.24228 | -59.25473 | 33182 ft | 445 kts | 263° |
| 2026-05-08 01:07 | -38.24911 | -59.29312 | 33572 ft | 445 kts | 263° |
| 2026-05-08 01:07 | -38.25593 | -59.33156 | 33887 ft | 444 kts | 262° |
| 2026-05-08 01:07 | -38.26270 | -59.36979 | 34282 ft | 442 kts | 262° |
| 2026-05-08 01:08 | -38.26936 | -59.40746 | 34663 ft | 440 kts | 262° |
| 2026-05-08 01:08 | -38.27608 | -59.44556 | 35003 ft | 439 kts | 262° |
| 2026-05-08 01:08 | -38.28278 | -59.48358 | 35309 ft | 438 kts | 262° |
| 2026-05-08 01:08 | -38.28942 | -59.52140 | 35648 ft | 437 kts | 262° |
| 2026-05-08 01:09 | -38.29597 | -59.55878 | 35977 ft | 436 kts | 262° |
| 2026-05-08 01:09 | -38.30256 | -59.59646 | 36294 ft | 435 kts | 262° |
| 2026-05-08 01:09 | -38.30913 | -59.63410 | 36598 ft | 434 kts | 261° |
| 2026-05-08 01:09 | -38.31567 | -59.67160 | 36919 ft | 432 kts | 261° |
| 2026-05-08 01:10 | -38.32210 | -59.70860 | 37253 ft | 431 kts | 261° |
| 2026-05-08 01:10 | -38.32857 | -59.74590 | 37528 ft | 430 kts | 261° |
| 2026-05-08 01:10 | -38.33505 | -59.78335 | 37587 ft | 434 kts | 261° |
| 2026-05-08 01:11 | -38.34797 | -59.85824 | 37594 ft | 435 kts | 261° |
| 2026-05-08 01:11 | -38.36087 | -59.93311 | 37595 ft | 429 kts | 261° |
| 2026-05-08 01:12 | -38.37360 | -60.00736 | 37618 ft | 426 kts | 261° |
| 2026-05-08 01:12 | -38.38613 | -60.08083 | 37616 ft | 425 kts | 261° |
| 2026-05-08 01:13 | -38.39866 | -60.15460 | 37621 ft | 424 kts | 261° |
| 2026-05-08 01:13 | -38.41103 | -60.22772 | 37631 ft | 424 kts | 261° |
| 2026-05-08 01:14 | -38.42339 | -60.30111 | 37631 ft | 425 kts | 260° |
| 2026-05-08 01:14 | -38.43587 | -60.37549 | 37644 ft | 430 kts | 260° |
| 2026-05-08 01:15 | -38.44836 | -60.45018 | 37645 ft | 434 kts | 260° |
| 2026-05-08 01:15 | -38.46092 | -60.52554 | 37631 ft | 433 kts | 260° |
| 2026-05-08 01:16 | -38.47329 | -60.60018 | 37646 ft | 430 kts | 260° |
| 2026-05-08 01:16 | -38.48563 | -60.67488 | 37649 ft | 427 kts | 260° |
| 2026-05-08 01:17 | -38.49781 | -60.74895 | 37658 ft | 425 kts | 259° |
| 2026-05-08 01:17 | -38.50978 | -60.82202 | 37660 ft | 422 kts | 259° |
| 2026-05-08 01:18 | -38.52175 | -60.89549 | 37664 ft | 420 kts | 259° |
| 2026-05-08 01:18 | -38.53358 | -60.96825 | 37666 ft | 418 kts | 259° |
| 2026-05-08 01:19 | -38.54528 | -61.04065 | 37672 ft | 416 kts | 259° |
| 2026-05-08 01:19 | -38.55691 | -61.11281 | 37675 ft | 414 kts | 259° |
| 2026-05-08 01:20 | -38.56851 | -61.18510 | 37687 ft | 413 kts | 258° |
| 2026-05-08 01:20 | -38.60849 | -61.43642 | 37740 ft | 422 kts | 258° |
| 2026-05-08 01:21 | -38.65528 | -61.73534 | 37745 ft | 436 kts | 258° |
| 2026-05-08 01:21 | -38.70169 | -62.03734 | 37744 ft | 429 kts | 257° |
| 2026-05-08 01:22 | -38.73255 | -62.33597 | 37758 ft | 417 kts | 264° |
| 2026-05-08 01:22 | -38.74915 | -62.63069 | 37795 ft | 417 kts | 263° |
| 2026-05-08 01:23 | -38.76684 | -62.93128 | 37824 ft | 430 kts | 263° |
| 2026-05-08 01:23 | -38.78384 | -63.23592 | 37777 ft | 426 kts | 263° |
| 2026-05-08 01:24 | -38.79982 | -63.53514 | 37772 ft | 411 kts | 263° |
| 2026-05-08 01:24 | -38.81473 | -63.82655 | 37861 ft | 413 kts | 263° |
| 2026-05-08 01:25 | -38.82922 | -64.12487 | 37891 ft | 429 kts | 263° |
| 2026-05-08 01:25 | -38.84325 | -64.43159 | 37840 ft | 426 kts | 262° |
| 2026-05-08 01:26 | -38.85616 | -64.72933 | 37830 ft | 409 kts | 262° |
| 2026-05-08 01:26 | -38.86816 | -65.01880 | 37924 ft | 410 kts | 262° |
| 2026-05-08 01:27 | -38.87971 | -65.31660 | 37962 ft | 423 kts | 262° |
| 2026-05-08 01:27 | -38.89048 | -65.61699 | 37912 ft | 418 kts | 262° |
| 2026-05-08 01:28 | -38.90025 | -65.90862 | 37907 ft | 401 kts | 262° |
| 2026-05-08 01:28 | -38.90918 | -66.19425 | 38004 ft | 402 kts | 262° |
| 2026-05-08 01:29 | -38.91727 | -66.48489 | 38028 ft | 416 kts | 262° |
| 2026-05-08 01:29 | -38.92468 | -66.78088 | 37964 ft | 411 kts | 262° |
| 2026-05-08 01:30 | -38.93125 | -67.06997 | 37964 ft | 395 kts | 262° |
| 2026-05-08 01:30 | -38.93704 | -67.35091 | 38049 ft | 399 kts | 262° |
| 2026-05-08 01:31 | -38.94237 | -67.64289 | 38086 ft | 415 kts | 262° |
| 2026-05-08 01:31 | -38.94697 | -67.93677 | 38040 ft | 408 kts | 262° |
| 2026-05-08 01:31 | -38.94899 | -68.07995 | 38027 ft | 396 kts | 261° |
| 2026-05-08 01:32 | -38.96891 | -68.20842 | 38033 ft | 366 kts | 236° |
| 2026-05-08 01:32 | -38.99291 | -68.26659 | 38083 ft | 376 kts | 238° |
| 2026-05-08 01:33 | -39.01675 | -68.32765 | 38078 ft | 383 kts | 239° |
| 2026-05-08 01:33 | -39.04031 | -68.38896 | 38079 ft | 384 kts | 239° |
| 2026-05-08 01:34 | -39.06401 | -68.45087 | 38074 ft | 384 kts | 239° |
| 2026-05-08 01:34 | -39.08751 | -68.51230 | 38092 ft | 383 kts | 239° |
| 2026-05-08 01:35 | -39.11087 | -68.57343 | 38093 ft | 381 kts | 239° |
| 2026-05-08 01:35 | -39.13431 | -68.63489 | 38091 ft | 380 kts | 239° |
| 2026-05-08 01:36 | -39.15744 | -68.69566 | 38083 ft | 378 kts | 239° |
| 2026-05-08 01:36 | -39.18048 | -68.75631 | 38093 ft | 376 kts | 239° |
| 2026-05-08 01:37 | -39.20335 | -68.81662 | 38103 ft | 374 kts | 239° |
| 2026-05-08 01:37 | -39.22610 | -68.87674 | 38096 ft | 373 kts | 239° |
| 2026-05-08 01:38 | -39.24889 | -68.93710 | 37901 ft | 375 kts | 239° |
| 2026-05-08 01:38 | -39.26035 | -68.96746 | 37558 ft | 372 kts | 239° |
| 2026-05-08 01:38 | -39.27154 | -68.99720 | 37040 ft | 370 kts | 239° |
| 2026-05-08 01:38 | -39.28273 | -69.02700 | 36653 ft | 364 kts | 239° |
| 2026-05-08 01:39 | -39.29365 | -69.05607 | 36226 ft | 361 kts | 239° |
| 2026-05-08 01:39 | -39.30458 | -69.08519 | 35799 ft | 357 kts | 239° |
| 2026-05-08 01:39 | -39.31527 | -69.11370 | 35390 ft | 355 kts | 239° |
| 2026-05-08 01:39 | -39.32601 | -69.14234 | 34973 ft | 352 kts | 239° |
| 2026-05-08 01:40 | -39.33665 | -69.17075 | 34558 ft | 350 kts | 239° |
| 2026-05-08 01:40 | -39.34723 | -69.19902 | 34144 ft | 348 kts | 239° |
| 2026-05-08 01:40 | -39.35766 | -69.22690 | 33666 ft | 346 kts | 239° |
| 2026-05-08 01:40 | -39.36805 | -69.25472 | 33219 ft | 343 kts | 239° |
| 2026-05-08 01:41 | -39.37831 | -69.28224 | 32794 ft | 340 kts | 239° |
| 2026-05-08 01:41 | -39.38860 | -69.30985 | 32378 ft | 337 kts | 239° |
| 2026-05-08 01:41 | -39.39874 | -69.33709 | 31981 ft | 334 kts | 239° |
| 2026-05-08 01:41 | -39.40865 | -69.36373 | 31594 ft | 331 kts | 239° |
| 2026-05-08 01:42 | -39.41861 | -69.39052 | 31203 ft | 328 kts | 239° |
| 2026-05-08 01:42 | -39.42850 | -69.41716 | 30826 ft | 325 kts | 239° |
| 2026-05-08 01:42 | -39.43813 | -69.44309 | 30452 ft | 323 kts | 239° |
| 2026-05-08 01:42 | -39.44784 | -69.46928 | 30055 ft | 321 kts | 239° |
| 2026-05-08 01:43 | -39.45750 | -69.49536 | 29614 ft | 318 kts | 239° |
| 2026-05-08 01:43 | -39.46701 | -69.52107 | 29208 ft | 313 kts | 239° |
| 2026-05-08 01:43 | -39.47625 | -69.54610 | 28806 ft | 310 kts | 238° |
| 2026-05-08 01:43 | -39.48551 | -69.57117 | 28411 ft | 302 kts | 238° |
| 2026-05-08 01:44 | -39.49429 | -69.59504 | 28038 ft | 291 kts | 238° |
| 2026-05-08 01:44 | -39.50286 | -69.61835 | 27667 ft | 282 kts | 238° |
| 2026-05-08 01:44 | -39.51130 | -69.64124 | 27305 ft | 281 kts | 238° |
| 2026-05-08 01:44 | -39.51981 | -69.66425 | 26937 ft | 284 kts | 238° |
| 2026-05-08 01:45 | -39.52842 | -69.68750 | 26579 ft | 295 kts | 238° |
| 2026-05-08 01:45 | -39.53745 | -69.71189 | 26178 ft | 302 kts | 238° |
| 2026-05-08 01:45 | -39.54641 | -69.73624 | 25780 ft | 301 kts | 238° |
| 2026-05-08 01:45 | -39.55537 | -69.76069 | 25380 ft | 299 kts | 238° |
| 2026-05-08 01:46 | -39.56426 | -69.78499 | 24989 ft | 296 kts | 238° |
| 2026-05-08 01:46 | -39.57297 | -69.80882 | 24609 ft | 294 kts | 238° |
| 2026-05-08 01:46 | -39.58176 | -69.83283 | 24220 ft | 292 kts | 238° |
| 2026-05-08 01:46 | -39.59047 | -69.85665 | 23836 ft | 291 kts | 238° |
| 2026-05-08 01:47 | -39.59905 | -69.88012 | 23405 ft | 290 kts | 238° |
| 2026-05-08 01:47 | -39.60768 | -69.90378 | 22968 ft | 287 kts | 238° |
| 2026-05-08 01:47 | -39.61617 | -69.92707 | 22586 ft | 284 kts | 238° |
| 2026-05-08 01:48 | -39.63291 | -69.97294 | 21520 ft | 286 kts | 238° |
| 2026-05-08 01:48 | -39.64150 | -69.99644 | 20980 ft | 288 kts | 238° |
| 2026-05-08 01:48 | -39.64998 | -70.01976 | 20552 ft | 286 kts | 238° |
| 2026-05-08 01:48 | -39.65846 | -70.04310 | 20139 ft | 284 kts | 238° |
| 2026-05-08 01:49 | -39.66676 | -70.06598 | 19728 ft | 282 kts | 238° |
| 2026-05-08 01:49 | -39.67510 | -70.08898 | 19312 ft | 281 kts | 239° |
| 2026-05-08 01:49 | -39.68342 | -70.11191 | 18912 ft | 279 kts | 239° |
| 2026-05-08 01:49 | -39.69159 | -70.13445 | 18511 ft | 277 kts | 239° |
| 2026-05-08 01:50 | -39.69979 | -70.15709 | 18066 ft | 276 kts | 239° |
| 2026-05-08 01:50 | -39.70797 | -70.17971 | 17617 ft | 274 kts | 239° |
| 2026-05-08 01:50 | -39.71601 | -70.20193 | 17193 ft | 272 kts | 239° |
| 2026-05-08 01:50 | -39.72404 | -70.22417 | 16781 ft | 270 kts | 239° |
| 2026-05-08 01:51 | -39.73202 | -70.24626 | 16365 ft | 269 kts | 239° |
| 2026-05-08 01:51 | -39.73985 | -70.26797 | 15939 ft | 267 kts | 240° |
| 2026-05-08 01:51 | -39.74774 | -70.28986 | 15517 ft | 266 kts | 240° |
| 2026-05-08 01:51 | -39.75559 | -70.31163 | 15123 ft | 264 kts | 240° |
| 2026-05-08 01:52 | -39.76338 | -70.33328 | 14724 ft | 263 kts | 240° |
| 2026-05-08 01:52 | -39.77107 | -70.35465 | 14330 ft | 262 kts | 240° |
| 2026-05-08 01:52 | -39.77879 | -70.37613 | 13939 ft | 261 kts | 240° |
| 2026-05-08 01:52 | -39.78639 | -70.39729 | 13522 ft | 260 kts | 240° |
| 2026-05-08 01:53 | -39.79405 | -70.41864 | 13111 ft | 258 kts | 240° |
| 2026-05-08 01:53 | -39.80160 | -70.43970 | 12735 ft | 255 kts | 240° |
| 2026-05-08 01:53 | -39.80910 | -70.46065 | 12307 ft | 254 kts | 240° |
| 2026-05-08 01:53 | -39.81655 | -70.48145 | 11931 ft | 252 kts | 240° |
| 2026-05-08 01:54 | -39.82385 | -70.50186 | 11536 ft | 250 kts | 240° |
| 2026-05-08 01:54 | -39.83120 | -70.52240 | 11184 ft | 248 kts | 240° |
| 2026-05-08 01:54 | -39.83837 | -70.54249 | 10819 ft | 246 kts | 239° |
| 2026-05-08 01:54 | -39.84560 | -70.56271 | 10451 ft | 244 kts | 239° |
| 2026-05-08 01:55 | -39.85273 | -70.58270 | 10102 ft | 242 kts | 239° |
| 2026-05-08 01:55 | -39.85979 | -70.60250 | 9712 ft | 240 kts | 240° |
| 2026-05-08 01:55 | -39.86673 | -70.62194 | 9312 ft | 239 kts | 240° |
| 2026-05-08 01:55 | -39.87371 | -70.64155 | 8960 ft | 236 kts | 241° |
| 2026-05-08 01:56 | -39.88036 | -70.66031 | 8784 ft | 226 kts | 241° |
| 2026-05-08 01:56 | -39.88699 | -70.67890 | 8426 ft | 226 kts | 242° |
| 2026-05-08 01:56 | -39.89138 | -70.69121 | 8212 ft | 225 kts | 242° |
| 2026-05-08 01:56 | -39.90011 | -70.71576 | 7765 ft | 223 kts | 243° |
| 2026-05-08 01:57 | -39.90444 | -70.72793 | 7529 ft | 223 kts | 243° |
| 2026-05-08 01:57 | -39.91101 | -70.74645 | 7479 ft | 226 kts | 243° |
| 2026-05-08 01:57 | -39.91763 | -70.76506 | 7433 ft | 227 kts | 244° |
| 2026-05-08 01:57 | -39.92440 | -70.78367 | 7420 ft | 225 kts | 241° |
| 2026-05-08 01:58 | -39.93195 | -70.80119 | 7446 ft | 223 kts | 239° |
| 2026-05-08 01:58 | -39.93973 | -70.81861 | 7365 ft | 216 kts | 239° |
| 2026-05-08 01:58 | -39.94695 | -70.83485 | 7246 ft | 201 kts | 240° |
| 2026-05-08 01:58 | -39.95362 | -70.84996 | 7143 ft | 183 kts | 241° |
| 2026-05-08 01:59 | -39.95985 | -70.86410 | 6709 ft | 180 kts | 240° |
| 2026-05-08 01:59 | -39.96615 | -70.87844 | 6163 ft | 181 kts | 242° |
| 2026-05-08 01:59 | -39.97247 | -70.89287 | 6100 ft | 188 kts | 242° |
| 2026-05-08 01:59 | -39.97872 | -70.90705 | 6040 ft | 169 kts | 243° |
| 2026-05-08 02:00 | -39.98430 | -70.91986 | 6027 ft | 158 kts | 244° |
| 2026-05-08 02:00 | -39.98949 | -70.93209 | 5883 ft | 154 kts | 243° |
| 2026-05-08 02:00 | -39.99492 | -70.94429 | 5545 ft | 156 kts | 242° |
| 2026-05-08 02:00 | -40.00040 | -70.95667 | 5109 ft | 160 kts | 243° |
| 2026-05-08 02:01 | -40.00591 | -70.96914 | 4768 ft | 160 kts | 244° |
| 2026-05-08 02:01 | -40.01143 | -70.98170 | 4753 ft | 159 kts | 243° |
| 2026-05-08 02:01 | -40.01692 | -70.99420 | 4719 ft | 157 kts | 243° |
| 2026-05-08 02:01 | -40.02236 | -71.00657 | 4721 ft | 157 kts | 243° |
| 2026-05-08 02:02 | -40.02767 | -71.01862 | 4514 ft | 153 kts | 243° |
| 2026-05-08 02:02 | -40.03297 | -71.03056 | 4361 ft | 152 kts | 242° |
| 2026-05-08 02:02 | -40.03813 | -71.04222 | 4133 ft | 143 kts | 243° |
| 2026-05-08 02:02 | -40.04358 | -71.05314 | 3874 ft | 143 kts | 231° |
| 2026-05-08 02:03 | -40.05030 | -71.06235 | 3689 ft | 141 kts | 230° |
| 2026-05-08 02:03 | -40.05562 | -71.07280 | 3480 ft | 132 kts | 244° |
| 2026-05-08 02:03 | -40.05881 | -71.08383 | 3299 ft | 128 kts | 250° |
| 2026-05-08 02:03 | -40.06198 | -71.09439 | 3198 ft | 116 kts | 246° |
| 2026-05-08 02:04 | -40.06509 | -71.10362 | 2982 ft | 110 kts | 246° |
| 2026-05-08 02:04 | -40.06785 | -71.11314 | 2795 ft | 113 kts | 248° |
| 2026-05-08 02:04 | -40.07077 | -71.12250 | 2663 ft | 109 kts | 250° |
| 2026-05-08 02:04 | -40.07340 | -71.13114 | 2599 ft | 90 kts | 248° |
| 2026-05-08 02:05 | -40.07520 | -71.13702 | 2594 ft | 30 kts | 248° |
| 2026-05-08 02:05 | -40.07622 | -71.13849 | 2598 ft | 19 kts | 211° |
| 2026-05-08 02:05 | -40.07723 | -71.13934 | 2594 ft | 13 kts | 213° |
| 2026-05-08 02:05 | -40.07797 | -71.13997 | 2588 ft | 12 kts | 213° |
| 2026-05-08 02:06 | -40.07866 | -71.14060 | 2595 ft | 12 kts | 216° |
| 2026-05-08 02:06 | -40.07935 | -71.14120 | 2592 ft | 12 kts | 213° |
| 2026-05-08 02:06 | -40.08002 | -71.14178 | 2597 ft | 11 kts | 213° |
| 2026-05-08 02:06 | -40.08051 | -71.14219 | 2597 ft | 7 kts | 212° |
| 2026-05-08 02:07 | -40.08085 | -71.14233 | 2589 ft | 5 kts | 169° |
| 2026-05-08 02:07 | -40.08116 | -71.14210 | 2597 ft | 2 kts | 147° |
| 2026-05-08 02:07 | -40.08124 | -71.14207 | 2597 ft | 1 kts | 179° |
| 2026-05-08 02:07 | -40.08124 | -71.14219 | 2588 ft | 1 kts | 284° |
| 2026-05-08 02:08 | -40.08113 | -71.14231 | 2595 ft | 2 kts | 323° |
| 2026-05-08 02:08 | -40.08109 | -71.14234 | 2595 ft | 0 kts | 325° |